AirNav   ProFlight Series 2 Aviation Headset
 
 414 users online  

3VA8 Garner Airport
Windsor, Virginia, USA

GOING TO WINDSOR?


FAA INFORMATION EFFECTIVE 16 JULY 2020

Location

FAA Identifier: 3VA8
Lat/Long: 36-51-22.5370N 076-40-55.8410W
36-51.375617N 076-40.930683W
36.8562603,-76.6821781
(estimated)
Elevation: 80 ft. / 24.4 m (surveyed)
Variation: 09W (1985)
From city: 5 miles NE of WINDSOR, VA
Time zone: UTC -4 (UTC -5 during Standard Time)
Zip code: 23487

Airport Operations

Airport use: Private use. Permission required prior to landing
Activation date: 06/1970
Control tower: no
ARTCC: WASHINGTON CENTER
FSS: LEESBURG FLIGHT SERVICE STATION
Attendance: UNATNDD
Wind indicator: yes
Segmented circle: no

Airport Communications

WX AWOS-3 at SFQ (11 nm S): 119.375 (757-934-3942)
WX AWOS-3PT at PVG (12 nm E): 118.375 (757-465-2175)
WX AWOS-3PT at FKN (14 nm SW): 124.675 (757-562-8765)
WX ASOS at AKQ (17 nm NW): 128.325 (757-899-2300)
WX ASOS at PHF (19 nm NE): PHONE 757-874-3682

Nearby radio navigation aids

VOR radial/distance  VOR name  Freq  Var
FKNr071/18.0FRANKLIN VORTAC110.6009W
ORFr272/23.2NORFOLK VORTAC116.9007W
CVIr026/30.4COFIELD VORTAC114.6009W
HPWr150/35.1HOPEWELL VORTAC112.0006W
HCMr185/35.6HARCUM VORTAC108.8007W

 
NDB name  Hdg/Dist  Freq  Var  ID
WAKEFIELD127/17.127411WAKQ .- -.- --.-

Airport Services

Airframe service: NONE
Powerplant service: NONE

Runway Information

Runway N/S

Dimensions: 2600 x 75 ft. / 792 x 23 m
Surface: turf
RUNWAY N  RUNWAY S
Traffic pattern: leftleft

Airport Ownership and Management from official FAA records

Ownership: Privately-owned
Owner: TIDEWATER SOARING FOUNDATION
1400 MAQRUDER RD
SMITHFIELD, VA 23430
Phone 757-357-2360
Manager: WILLIAM E. LAINE, JR
1400 MAQRUDER RD
SMITHFIELD, VA 23430
Phone 757-357-2360
WEEKENDS ONLY.

Airport Operational Statistics

Aircraft based on the field: 27
Single engine airplanes: 2
Gliders airplanes: 25
    

Additional Remarks

GLDR OPS ON WKENDS. 123.3
TO OBTAIN LNDG PMSN CALL W.E. LAINE, JR., 757-377-6174 (NIGHTS & WKENDS & DAYS).
FOR CD CTC NORFOLK APCH AT 757-464-0757.

Instrument Procedures

There are no published instrument procedures at 3VA8.

Some nearby airports with instrument procedures:

KSFQ - Suffolk Executive Airport (11 nm S)
KPVG - Hampton Roads Executive Airport (12 nm E)
KFKN - Franklin Regional Airport (14 nm SW)
KFAF - Felker Army Airfield (17 nm N)
KAKQ - Wakefield Municipal Airport (17 nm NW)
KPHF - Newport News/Williamsburg International Airport (19 nm NE)
KNGU - Norfolk Naval Station (Chambers Field) (19 nm E)
 
Loc | Ops | Rwys | IFR | FBO | Links
Com | Nav | Svcs | Stats | Notes
Area around 3VA8 (Garner Airport)
 
Road maps at: MapQuest Bing Google
 
Aerial photo
WARNING: Photo may not be current or correct
Aerial photo of 3VA8 (Garner Airport)
Photo taken 01-May-2018
looking west.

Do you have a better or more recent aerial photo of Garner Airport that you would like to share? If so, please send us your photo.

 
Sectional chart

 
Airport distance calculator
Flying to Garner Airport? Find the distance to fly.

From to 3VA8

Sunrise and sunset
Times for 04-Aug-2020
 Local
(UTC-4)
 Zulu
(UTC)
Morning civil twilight05:4809:48
Sunrise06:1610:16
Sunset20:0900:09
Evening civil twilight20:3700:37

Current date and time
Zulu (UTC)  04-Aug-2020 06:53:10
Local (UTC-4)  04-Aug-2020 02:53:10
 
METAR
KSFQ 
11nm S 
040635Z AUTO 08014G20KT 7SM -RA SCT045 SCT085 BKN110 25/25 A2978 RMK AO2 P0005 T02480248
KPVG 
12nm E 
040556Z AUTO 09004KT 10SM FEW029 23/23 A2989 RMK AO2 RAE50 SLP122 6//// T02330233 10239 20222 58039 PNO $
KFKN 
14nm SW 
040635Z AUTO 05011G16KT 7SM RA SCT008 SCT027 BKN085 23/23 A2976 RMK AO2 P0008 T02310227
KFAF 
16nm N 
040620Z AUTO 07005KT 10SM -DZ FEW026 24/23 A2986 RMK AO2 RAE10DZB13E18DZB20 SLP115 $
KAKQ 
17nm NW 
040554Z AUTO VRB05KT 6SM RA BR FEW005 BKN055 OVC090 23/22 A2987 RMK AO2 SLP113 P0024 60084 T02280222 10244 20222 58036
KPHF 
19nm NE 
040638Z AUTO 05007KT 10SM -RA FEW017 SCT021 SCT110 25/22 A2985 RMK AO2 PRESFR P0000 T02500217
KLFI 
20nm NE 
040618Z AUTO 11008KT 9SM FEW020 25/25 A2990 RMK AO2 RAE00DZB00E03 SLP131 $
KNGU 
20nm E 
040559Z 11009G14KT 6SM BR SCT015 BKN020 OVC060 27/24 A2991 RMK AO2 PK WND 15027/0521 RAE48 SLP127 SVR T1 SET P0021 60024 T02670239 10272 20250 58035 $
KCPK 
21nm SE 
040635Z AUTO 08010KT 7SM -RA SCT015 SCT035 BKN110 25/25 A2982 RMK AO2 T02520246
TAF
KFAF 
16nm N 
031924Z 0319/0424 18010KT 8000 -SHRA BKN020 OVC050 QNH3003INS TEMPO 0318/0322 VRB15G30KT 3200 -TSRA FEW010 BKN020CB BECMG 0322/0323 23012G18KT 6000 -SHRA BKN030 OVC080 QNH2999INS BECMG 0404/0405 08020G30KT 4800 -TSRA FEW010CB BKN020 QNH2982INS BECMG 0406/0407 15030G45KT 1600 TSRA BKN009CB OVC020 QNH2959INS TEMPO 0409/0415 17045G55KT 550005 BECMG 0416/0417 23025G35KT 4800 -SHRA BKN030 OVC050 520005 QNH2931INS TEMPO 0421/0424 6000 -TSRA BKN020CB TX25/0418Z TN21/0322Z LAST NO AMDS AFT 0323 NEXT 041
KPHF 
19nm NE 
040520Z 0406/0506 08004KT 6SM -RA SCT008 BKN070 TEMPO 0406/0409 10010G22KT 1SM +RA BKN008 FM041000 11030G45KT 4SM +RA BKN006 OVC015 FM041200 14040G53KT 3SM +RA OVC010 FM041600 25018G27KT 5SM SHRA OVC040 FM041800 22012KT P6SM BKN050
KLFI 
20nm NE 
040158Z 0401/0507 11009KT 9999 SCT030 BKN110 QNH2985INS TEMPO 0402/0407 14012G18KT 4800 -TSRA BKN030CB OVC040 TEMPO 0407/0409 14045G60KT 1600 TSRA BKN010CB OVC030 BECMG 0408/0409 16035G45KT 1600 -SHRA BKN020 OVC030 550009 QNH2950INS BECMG 0412/0413 11045G65KT 2400 -SHRA BKN010 OVC020 550009 QNH2930INS BECMG 0415/0416 11030G45KT 3200 -SHRA BKN020 OVC030 550009 QNH2930INS BECMG 0418/0419 23020G30KT 4800 -SHRA BKN040 OVC050 520005 QNH2931INS TEMPO 0421/0423 22015G20KT 6000 -TSRA BKN030CB BECMG 0500
NOTAMs
Click for the latest NOTAMs
NOTAMs are issued by the DoD/FAA and will open in a separate window not controlled by AirNav.

 

 
 

Would you like to see your business listed on this page?

 If your business provides an interesting product or service to pilots, flight crews, aircraft, or users of the Garner Airport, you should consider listing it here.  To start the listing process, click on the button below
 
Add a business
 

Other Pages about Garner Airport

Update a link
 
Copyright © AirNav, LLC. All rights reserved. Privacy Policy  Contact